createdAt,value
2023-04-10T00:04:35.071Z,100
2023-04-10T00:44:48.141Z,100
2023-04-10T00:59:53.255Z,100
2023-04-10T01:04:54.813Z,100
2023-04-10T01:10:02.486Z,100
2023-04-10T01:15:04.503Z,100
2023-04-10T01:20:05.828Z,100
2023-04-10T01:25:07.751Z,100
2023-04-10T01:30:09.421Z,100
2023-04-10T01:35:11.272Z,100
2023-04-10T01:40:12.804Z,100
2023-04-10T01:45:14.217Z,100
2023-04-10T01:50:15.688Z,100
2023-04-10T01:55:17.022Z,100
2023-04-10T02:00:18.568Z,100
2023-04-10T02:05:20.077Z,100
2023-04-10T02:10:21.339Z,100
2023-04-10T02:15:22.799Z,100
2023-04-10T02:20:24.123Z,100
2023-04-10T02:25:26.239Z,100
2023-04-10T02:30:27.877Z,100
2023-04-10T02:35:37.574Z,100
2023-04-10T02:40:30.907Z,100
2023-04-10T02:45:32.624Z,100
2023-04-10T02:50:34.588Z,100
2023-04-10T02:55:36.436Z,100
2023-04-10T03:00:38.364Z,100
2023-04-10T03:05:39.982Z,100
2023-04-10T03:10:41.304Z,100
2023-04-10T03:15:43.446Z,100
2023-04-10T03:20:45.410Z,100
2023-04-10T03:25:46.646Z,100
2023-04-10T03:30:48.318Z,100
2023-04-10T03:35:49.871Z,100
2023-04-10T03:40:51.118Z,100
2023-04-10T03:45:53.142Z,100
2023-04-10T03:50:54.491Z,100
2023-04-10T03:55:56.240Z,100
2023-04-10T04:00:57.657Z,100
2023-04-10T04:05:58.977Z,100
2023-04-10T04:11:00.638Z,100
2023-04-10T04:16:02.539Z,100
2023-04-10T04:21:04.617Z,100
2023-04-10T04:26:05.831Z,100
2023-04-10T04:31:07.483Z,100
2023-04-10T04:36:09.049Z,100
2023-04-10T04:41:11.118Z,100
2023-04-10T04:46:13.231Z,100
2023-04-10T04:51:15.023Z,100
2023-04-10T04:56:17.046Z,100
2023-04-10T05:01:18.343Z,100
2023-04-10T05:06:19.779Z,100
2023-04-10T05:11:30.785Z,100
2023-04-10T05:16:24.007Z,100
2023-04-10T05:21:25.973Z,100
2023-04-10T05:26:27.876Z,100
2023-04-10T05:31:29.246Z,100
2023-04-10T05:36:30.433Z,100
2023-04-10T05:41:31.836Z,100
2023-04-10T05:46:33.533Z,100
2023-04-10T05:51:35.571Z,100
2023-04-10T05:56:36.855Z,100
2023-04-10T06:01:38.782Z,100
2023-04-10T06:06:40.491Z,100
2023-04-10T06:11:42.614Z,100
2023-04-10T06:16:44.551Z,100
2023-04-10T06:21:46.594Z,100
2023-04-10T06:26:47.896Z,100
2023-04-10T06:31:49.222Z,100
2023-04-10T06:36:50.617Z,100
2023-04-10T06:41:52.367Z,100
2023-04-10T06:46:54.377Z,100
2023-04-10T06:51:56.104Z,100
2023-04-10T06:56:57.471Z,100
2023-04-10T07:01:59.236Z,100
2023-04-10T07:07:00.923Z,100
2023-04-10T07:12:02.962Z,100
2023-04-10T07:17:04.351Z,100
2023-04-10T07:22:06.025Z,100
2023-04-10T07:27:07.547Z,100
2023-04-10T07:32:09.422Z,100
2023-04-10T07:37:11.438Z,100
2023-04-10T07:42:13.633Z,100
2023-04-10T07:47:15.624Z,100
2023-04-10T07:52:17.495Z,100
2023-04-10T07:57:19.555Z,100
2023-04-10T08:02:21.743Z,100
2023-04-10T08:07:22.918Z,100
2023-04-10T08:12:24.462Z,100
2023-04-10T08:17:26.360Z,100
2023-04-10T08:22:28.440Z,100
2023-04-10T08:27:29.833Z,100
2023-04-10T08:32:31.350Z,100
2023-04-10T08:37:33.259Z,100
2023-04-10T08:42:35.713Z,100
2023-04-10T08:47:36.993Z,100
2023-04-10T08:52:38.709Z,100
2023-04-10T08:57:42.792Z,100
2023-04-10T09:02:42.638Z,100
2023-04-10T09:07:43.095Z,100
2023-04-10T09:12:44.930Z,100
2023-04-10T09:17:46.933Z,100
2023-04-10T09:22:49.002Z,100
2023-04-10T09:27:50.967Z,100
2023-04-10T09:32:52.358Z,100
2023-04-10T09:37:54.241Z,100
2023-04-10T09:42:56.170Z,100
2023-04-10T09:47:58.135Z,100
2023-04-10T09:52:59.428Z,100
2023-04-10T09:58:01.146Z,100
2023-04-10T10:03:03.133Z,100
2023-04-10T10:08:05.082Z,100
2023-04-10T10:13:06.777Z,92
2023-04-10T10:18:08.943Z,92
2023-04-10T10:23:11.030Z,87
2023-04-10T10:28:12.918Z,86
2023-04-10T10:33:14.318Z,74
2023-04-10T10:38:15.687Z,78
2023-04-10T10:43:17.734Z,68
2023-04-10T10:48:19.659Z,67
2023-04-10T10:53:21.720Z,65
2023-04-10T10:58:23.717Z,61
2023-04-10T11:03:25.162Z,58
2023-04-10T11:08:27.035Z,54
2023-04-10T11:13:28.667Z,56
2023-04-10T11:18:30.366Z,50
2023-04-10T11:23:32.056Z,48
2023-04-10T11:28:34.155Z,49
2023-04-10T11:33:36.111Z,50
2023-04-10T11:38:37.735Z,44
2023-04-10T11:43:39.492Z,47
2023-04-10T11:48:41.222Z,43
2023-04-10T11:53:42.980Z,44
2023-04-10T11:58:44.538Z,40
2023-04-10T12:03:46.090Z,41
2023-04-10T12:08:48.100Z,43
2023-04-10T12:13:49.847Z,43
2023-04-10T12:18:51.400Z,39
2023-04-10T12:23:53.340Z,38
2023-04-10T12:28:54.939Z,36
2023-04-10T12:33:55.946Z,37
2023-04-10T12:38:57.952Z,33
2023-04-10T12:43:59.346Z,32
2023-04-10T12:49:00.823Z,32
2023-04-10T12:54:02.752Z,30
2023-04-10T12:59:04.396Z,29
2023-04-10T13:24:16.067Z,28
2023-04-10T13:29:15.563Z,29
2023-04-10T13:34:17.470Z,29
2023-04-10T13:54:24.687Z,28
2023-04-10T13:59:26.855Z,29
2023-04-10T14:04:28.357Z,27
2023-04-10T14:29:40.700Z,24
2023-04-10T14:44:41.111Z,25
2023-04-10T14:54:44.767Z,24
2023-04-10T15:09:49.264Z,23
2023-04-10T15:14:50.713Z,22
2023-04-10T15:29:55.670Z,23
2023-04-10T15:45:00.977Z,24
2023-04-10T16:00:05.862Z,25
2023-04-10T16:05:07.384Z,25
2023-04-10T16:10:09.462Z,26
2023-04-10T16:15:11.060Z,27
2023-04-10T16:20:12.853Z,25
2023-04-10T16:25:14.813Z,26
2023-04-10T16:30:16.993Z,26
2023-04-10T16:35:18.309Z,27
2023-04-10T16:40:19.807Z,29
2023-04-10T16:45:21.692Z,29
2023-04-10T16:50:23.004Z,30
2023-04-10T16:55:26.851Z,31
2023-04-10T17:00:26.740Z,32
2023-04-10T17:05:28.334Z,34
2023-04-10T17:10:29.771Z,35
2023-04-10T17:15:31.066Z,37
2023-04-10T17:20:33.068Z,40
2023-04-10T17:25:34.729Z,42
2023-04-10T17:30:36.417Z,45
2023-04-10T17:35:38.321Z,48
2023-04-10T17:40:40.380Z,52
2023-04-10T17:45:41.816Z,58
2023-04-10T17:50:51.606Z,63
2023-04-10T17:55:59.916Z,69
2023-04-10T18:01:01.745Z,85
2023-04-10T18:06:03.657Z,89
2023-04-10T18:11:07.832Z,95
2023-04-10T18:16:06.981Z,100
2023-04-10T18:21:08.502Z,100
2023-04-10T18:26:10.463Z,100
2023-04-10T18:31:12.377Z,100
2023-04-10T18:36:14.296Z,100
2023-04-10T18:41:16.480Z,100
2023-04-10T18:46:18.209Z,100
2023-04-10T18:51:20.285Z,100
2023-04-10T18:56:22.388Z,100
2023-04-10T19:01:23.651Z,100
2023-04-10T19:06:25.405Z,100
2023-04-10T19:11:27.217Z,100
2023-04-10T19:16:29.051Z,100
2023-04-10T19:21:31.154Z,100
2023-04-10T19:26:33.158Z,100
2023-04-10T19:31:34.995Z,100
2023-04-10T19:36:36.911Z,100
2023-04-10T19:41:38.184Z,100
2023-04-10T19:46:39.661Z,100
2023-04-10T19:51:41.041Z,100
2023-04-10T19:56:42.838Z,100
2023-04-10T20:01:44.119Z,100
2023-04-10T20:06:46.066Z,100
2023-04-10T20:11:47.699Z,100
2023-04-10T20:16:48.982Z,100
2023-04-10T20:21:50.627Z,100
2023-04-10T20:26:52.889Z,100
2023-04-10T20:31:54.695Z,100
2023-04-10T20:36:56.013Z,100
2023-04-10T20:41:57.716Z,100
2023-04-10T20:46:59.013Z,100
2023-04-10T20:52:00.298Z,100
2023-04-10T20:57:01.690Z,100
2023-04-10T21:02:08.763Z,100
2023-04-10T21:07:05.076Z,100
2023-04-10T21:12:07.126Z,100
2023-04-10T21:17:09.055Z,100
2023-04-10T21:22:10.391Z,100
2023-04-10T21:27:12.302Z,100
2023-04-10T21:32:13.696Z,100
2023-04-10T21:37:15.752Z,100
2023-04-10T21:42:17.458Z,100
2023-04-10T21:47:18.775Z,100
2023-04-10T21:52:20.645Z,100
2023-04-10T21:57:22.327Z,100
2023-04-10T22:02:23.897Z,100
2023-04-10T22:07:25.105Z,100
2023-04-10T22:12:26.853Z,100
2023-04-10T22:17:28.472Z,100
2023-04-10T22:22:30.550Z,100
2023-04-10T22:27:31.809Z,100
2023-04-10T22:32:33.722Z,100
2023-04-10T22:37:35.700Z,100
2023-04-10T22:42:37.666Z,100
2023-04-10T22:47:39.400Z,100
2023-04-10T22:52:40.975Z,100
2023-04-10T22:57:43.085Z,100
2023-04-10T23:02:44.410Z,100
2023-04-10T23:07:45.522Z,100
2023-04-10T23:12:47.227Z,100
2023-04-10T23:17:48.737Z,100
2023-04-10T23:22:50.280Z,100
2023-04-10T23:27:52.304Z,100
2023-04-10T23:32:53.853Z,100
2023-04-10T23:37:55.900Z,100
2023-04-10T23:42:57.606Z,100
2023-04-10T23:47:59.417Z,100
2023-04-10T23:53:00.741Z,100
2023-04-10T23:58:02.915Z,100
